Omskiy-107 — UBWE3 — position and weather

sailwx.info

Track history (hours):
 
Tides and Currents Weather Stations Pressure Air Temp Water Temp Dewpoint Dewpoint Depression Visibility Wind Speed Wind Dir Waves Ship Positions

Omskiy-107

Last reported at 2016-May-16 04:11 UTC. Time now 2016-May-24 09:54 UTC.
Position N 45°34' E 036°51'.
Warning: this ship's position is 8 days out of date.

Length 108 m; draft 2.4 m.

Type: Cargo ship. MMSI: 273343220.

Date/timePositionNaut miles runAvg speedWind from/ knotsBaromVisibWave heightAir tempDewpointWater temp
2016-May-16 04:11N 45°34' E 036°51'5 8.5
2016-May-16 03:33N 45°31' E 036°45'8 8.4
2016-May-16 02:33N 45°23' E 036°40'8 8.4
2016-May-16 01:33N 45°18' E 036°30'4 3.6
2016-May-16 00:33N 45°15' E 036°29'9 7.7
2016-May-15 23:25N 45°06' E 036°30'47 6.5
2016-May-15 16:16N 44°37' E 035°39'6 8.3
2016-May-15 15:33N 44°35' E 035°31'8 8.4
2016-May-15 14:33N 44°33' E 035°20'9 8.6
2016-May-15 13:33N 44°30' E 035°08'9 8.5
2016-May-15 12:33N 44°28' E 034°57'8 8.5
2016-May-15 11:33N 44°25' E 034°45'8 8.3
2016-May-15 10:33N 44°22' E 034°34'8 8.2
2016-May-15 09:33N 44°20' E 034°24'8 8.1
2016-May-15 08:33N 44°17' E 034°13'  
Track history (hours):
 
Tides and Currents Weather Stations Pressure Air Temp Water Temp Dewpoint Dewpoint Depression Visibility Wind Speed Wind Dir Waves Ship Positions

Omskiy-107

Last reported at 2016-May-16 04:11 UTC. Time now 2016-May-24 09:54 UTC.
Position N 45°34' E 036°51'.
Warning: this ship's position is 8 days out of date.

Length 108 m; draft 2.4 m.

Type: Cargo ship. MMSI: 273343220.

Date/timePositionNaut miles runAvg speedWind from/ knotsBaromVisibWave heightAir tempDewpointWater temp
2016-May-16 04:11N 45°34' E 036°51'5 8.5
2016-May-16 03:33N 45°31' E 036°45'8 8.4
2016-May-16 02:33N 45°23' E 036°40'8 8.4
2016-May-16 01:33N 45°18' E 036°30'4 3.6
2016-May-16 00:33N 45°15' E 036°29'9 7.7
2016-May-15 23:25N 45°06' E 036°30'47 6.5
2016-May-15 16:16N 44°37' E 035°39'6 8.3
2016-May-15 15:33N 44°35' E 035°31'8 8.4
2016-May-15 14:33N 44°33' E 035°20'9 8.6
2016-May-15 13:33N 44°30' E 035°08'9 8.5
2016-May-15 12:33N 44°28' E 034°57'8 8.5
2016-May-15 11:33N 44°25' E 034°45'8 8.3
2016-May-15 10:33N 44°22' E 034°34'8 8.2
2016-May-15 09:33N 44°20' E 034°24'8 8.1
2016-May-15 08:33N 44°17' E 034°13'  

Dump ship's entire track history